sensor_id;sensor_type;location;lat;lon;timestamp;temperature;humidity
7174;DHT22;3628;48.654;8.932;2024-01-15T00:02:16;-1.40;99.90
7174;DHT22;3628;48.654;8.932;2024-01-15T00:04:42;-1.40;99.90
7174;DHT22;3628;48.654;8.932;2024-01-15T00:07:08;-1.40;99.90
7174;DHT22;3628;48.654;8.932;2024-01-15T00:09:34;-1.40;99.90
7174;DHT22;3628;48.654;8.932;2024-01-15T00:12:00;-1.30;99.90
7174;DHT22;3628;48.654;8.932;2024-01-15T00:14:26;-1.30;99.90
7174;DHT22;3628;48.654;8.932;2024-01-15T00:16:52;-1.30;99.90
7174;DHT22;3628;48.654;8.932;2024-01-15T00:19:17;-1.30;99.90
7174;DHT22;3628;48.654;8.932;2024-01-15T00:21:44;-1.30;99.90
7174;DHT22;3628;48.654;8.932;2024-01-15T00:24:09;-1.30;99.90
7174;DHT22;3628;48.654;8.932;2024-01-15T00:26:35;-1.40;99.90
7174;DHT22;3628;48.654;8.932;2024-01-15T00:29:00;-1.40;99.90
7174;DHT22;3628;48.654;8.932;2024-01-15T00:31:26;-1.40;99.90
7174;DHT22;3628;48.654;8.932;2024-01-15T00:33:51;-1.40;99.90
7174;DHT22;3628;48.654;8.932;2024-01-15T00:36:17;-1.40;99.90
7174;DHT22;3628;48.654;8.932;2024-01-15T00:38:44;-1.40;99.90
7174;DHT22;3628;48.654;8.932;2024-01-15T00:41:10;-1.50;99.90
7174;DHT22;3628;48.654;8.932;2024-01-15T00:43:35;-1.50;99.90
7174;DHT22;3628;48.654;8.932;2024-01-15T00:46:04;-1.50;99.90
7174;DHT22;3628;48.654;8.932;2024-01-15T00:48:30;-1.50;99.90
7174;DHT22;3628;48.654;8.932;2024-01-15T00:50:55;-1.60;99.90
7174;DHT22;3628;48.654;8.932;2024-01-15T00:53:21;-1.60;99.90
7174;DHT22;3628;48.654;8.932;2024-01-15T00:55:49;-1.70;99.90
7174;DHT22;3628;48.654;8.932;2024-01-15T00:58:15;-1.70;99.90
7174;DHT22;3628;48.654;8.932;2024-01-15T01:00:41;-1.70;99.90
7174;DHT22;3628;48.654;8.932;2024-01-15T01:03:08;-1.70;99.90
7174;DHT22;3628;48.654;8.932;2024-01-15T01:05:34;-1.60;99.90
7174;DHT22;3628;48.654;8.932;2024-01-15T01:08:00;-1.60;99.90
7174;DHT22;3628;48.654;8.932;2024-01-15T01:10:25;-1.50;99.90
7174;DHT22;3628;48.654;8.932;2024-01-15T01:12:51;-1.50;99.90
7174;DHT22;3628;48.654;8.932;2024-01-15T01:15:16;-1.40;99.90
7174;DHT22;3628;48.654;8.932;2024-01-15T01:17:42;-1.40;99.90
7174;DHT22;3628;48.654;8.932;2024-01-15T01:20:08;-1.30;99.90
7174;DHT22;3628;48.654;8.932;2024-01-15T01:22:35;-1.30;99.90
7174;DHT22;3628;48.654;8.932;2024-01-15T01:25:02;-1.30;99.90
7174;DHT22;3628;48.654;8.932;2024-01-15T01:27:27;-1.20;99.90
7174;DHT22;3628;48.654;8.932;2024-01-15T01:29:53;-1.20;99.90
7174;DHT22;3628;48.654;8.932;2024-01-15T01:32:19;-1.20;99.90
7174;DHT22;3628;48.654;8.932;2024-01-15T01:34:44;-1.10;99.90
7174;DHT22;3628;48.654;8.932;2024-01-15T01:37:10;-1.10;99.90
7174;DHT22;3628;48.654;8.932;2024-01-15T01:39:39;-1.10;99.90
7174;DHT22;3628;48.654;8.932;2024-01-15T01:42:05;-1.10;99.90
7174;DHT22;3628;48.654;8.932;2024-01-15T01:44:30;-1.10;99.90
7174;DHT22;3628;48.654;8.932;2024-01-15T01:46:57;-1.20;99.90
7174;DHT22;3628;48.654;8.932;2024-01-15T01:49:24;-1.20;99.90
7174;DHT22;3628;48.654;8.932;2024-01-15T01:51:51;-1.20;99.90
7174;DHT22;3628;48.654;8.932;2024-01-15T01:54:17;-1.20;99.90
7174;DHT22;3628;48.654;8.932;2024-01-15T01:56:44;-1.20;99.90
7174;DHT22;3628;48.654;8.932;2024-01-15T01:59:11;-1.20;99.90
7174;DHT22;3628;48.654;8.932;2024-01-15T02:01:37;-1.20;99.90
7174;DHT22;3628;48.654;8.932;2024-01-15T02:04:04;-1.20;99.90
7174;DHT22;3628;48.654;8.932;2024-01-15T02:06:29;-1.30;99.90
7174;DHT22;3628;48.654;8.932;2024-01-15T02:08:55;-1.30;99.90
7174;DHT22;3628;48.654;8.932;2024-01-15T02:11:21;-1.30;99.90
7174;DHT22;3628;48.654;8.932;2024-01-15T02:13:47;-1.30;99.90
7174;DHT22;3628;48.654;8.932;2024-01-15T02:16:12;-1.30;99.90
7174;DHT22;3628;48.654;8.932;2024-01-15T02:18:45;-1.40;99.90
7174;DHT22;3628;48.654;8.932;2024-01-15T02:21:11;-1.40;99.90
7174;DHT22;3628;48.654;8.932;2024-01-15T02:23:37;-1.40;99.90
7174;DHT22;3628;48.654;8.932;2024-01-15T02:26:04;-1.40;99.90
7174;DHT22;3628;48.654;8.932;2024-01-15T02:28:30;-1.40;99.90
7174;DHT22;3628;48.654;8.932;2024-01-15T02:30:56;-1.40;99.90
7174;DHT22;3628;48.654;8.932;2024-01-15T02:33:22;-1.40;99.90
7174;DHT22;3628;48.654;8.932;2024-01-15T02:35:48;-1.40;99.90
7174;DHT22;3628;48.654;8.932;2024-01-15T02:38:15;-1.40;99.90
7174;DHT22;3628;48.654;8.932;2024-01-15T02:40:41;-1.40;99.90
7174;DHT22;3628;48.654;8.932;2024-01-15T02:43:07;-1.40;99.90
7174;DHT22;3628;48.654;8.932;2024-01-15T02:45:32;-1.40;99.90
7174;DHT22;3628;48.654;8.932;2024-01-15T02:47:58;-1.50;99.90
7174;DHT22;3628;48.654;8.932;2024-01-15T02:50:24;-1.50;99.90
7174;DHT22;3628;48.654;8.932;2024-01-15T02:52:49;-1.50;99.90
7174;DHT22;3628;48.654;8.932;2024-01-15T02:55:15;-1.50;99.90
7174;DHT22;3628;48.654;8.932;2024-01-15T02:57:41;-1.50;99.90
7174;DHT22;3628;48.654;8.932;2024-01-15T03:00:07;-1.50;99.90
7174;DHT22;3628;48.654;8.932;2024-01-15T03:02:35;-1.50;99.90
7174;DHT22;3628;48.654;8.932;2024-01-15T03:05:01;-1.50;99.90
7174;DHT22;3628;48.654;8.932;2024-01-15T03:07:28;-1.50;99.90
7174;DHT22;3628;48.654;8.932;2024-01-15T03:09:53;-1.40;99.90
7174;DHT22;3628;48.654;8.932;2024-01-15T03:12:19;-1.40;99.90
7174;DHT22;3628;48.654;8.932;2024-01-15T03:14:45;-1.40;99.90
7174;DHT22;3628;48.654;8.932;2024-01-15T03:17:10;-1.40;99.90
7174;DHT22;3628;48.654;8.932;2024-01-15T03:19:37;-1.40;99.90
7174;DHT22;3628;48.654;8.932;2024-01-15T03:22:03;-1.30;99.90
7174;DHT22;3628;48.654;8.932;2024-01-15T03:24:29;-1.20;99.90
7174;DHT22;3628;48.654;8.932;2024-01-15T03:26:55;-1.20;99.90
7174;DHT22;3628;48.654;8.932;2024-01-15T03:29:21;-1.20;99.90
7174;DHT22;3628;48.654;8.932;2024-01-15T03:31:47;-1.10;99.90
7174;DHT22;3628;48.654;8.932;2024-01-15T03:34:12;-1.00;99.90
7174;DHT22;3628;48.654;8.932;2024-01-15T03:36:38;-1.00;99.90
7174;DHT22;3628;48.654;8.932;2024-01-15T03:39:03;-1.00;99.90
7174;DHT22;3628;48.654;8.932;2024-01-15T03:41:29;-1.00;99.90
7174;DHT22;3628;48.654;8.932;2024-01-15T03:43:54;-1.00;99.90
7174;DHT22;3628;48.654;8.932;2024-01-15T03:46:20;-0.90;99.90
7174;DHT22;3628;48.654;8.932;2024-01-15T03:48:46;-0.90;99.90
7174;DHT22;3628;48.654;8.932;2024-01-15T03:51:11;-0.90;99.90
7174;DHT22;3628;48.654;8.932;2024-01-15T03:53:38;-0.80;99.90
7174;DHT22;3628;48.654;8.932;2024-01-15T03:56:04;-0.80;99.90
7174;DHT22;3628;48.654;8.932;2024-01-15T03:58:29;-0.80;99.90
7174;DHT22;3628;48.654;8.932;2024-01-15T04:00:55;-0.80;99.90
7174;DHT22;3628;48.654;8.932;2024-01-15T04:03:20;-0.80;99.90
7174;DHT22;3628;48.654;8.932;2024-01-15T04:05:46;-0.80;99.90
7174;DHT22;3628;48.654;8.932;2024-01-15T04:08:12;-0.80;99.90
7174;DHT22;3628;48.654;8.932;2024-01-15T04:10:37;-0.70;99.90
7174;DHT22;3628;48.654;8.932;2024-01-15T04:13:03;-0.70;99.90
7174;DHT22;3628;48.654;8.932;2024-01-15T04:15:29;-0.70;99.90
7174;DHT22;3628;48.654;8.932;2024-01-15T04:17:54;-0.70;99.90
7174;DHT22;3628;48.654;8.932;2024-01-15T04:20:20;-0.70;99.90
7174;DHT22;3628;48.654;8.932;2024-01-15T04:22:45;-0.70;99.90
7174;DHT22;3628;48.654;8.932;2024-01-15T04:25:11;-0.70;99.90
7174;DHT22;3628;48.654;8.932;2024-01-15T04:27:36;-0.70;99.90
7174;DHT22;3628;48.654;8.932;2024-01-15T04:30:02;-0.70;99.90
7174;DHT22;3628;48.654;8.932;2024-01-15T04:32:28;-0.70;99.90
7174;DHT22;3628;48.654;8.932;2024-01-15T04:34:53;-0.70;99.90
7174;DHT22;3628;48.654;8.932;2024-01-15T04:37:19;-0.70;99.90
7174;DHT22;3628;48.654;8.932;2024-01-15T04:39:44;-0.70;99.90
7174;DHT22;3628;48.654;8.932;2024-01-15T04:42:10;-0.70;99.90
7174;DHT22;3628;48.654;8.932;2024-01-15T04:44:35;-0.70;99.90
7174;DHT22;3628;48.654;8.932;2024-01-15T04:47:01;-0.70;99.90
7174;DHT22;3628;48.654;8.932;2024-01-15T04:49:27;-0.70;99.90
7174;DHT22;3628;48.654;8.932;2024-01-15T04:51:54;-0.70;99.90
7174;DHT22;3628;48.654;8.932;2024-01-15T04:54:20;-0.70;99.90
7174;DHT22;3628;48.654;8.932;2024-01-15T04:56:46;-0.70;99.90
7174;DHT22;3628;48.654;8.932;2024-01-15T04:59:11;-0.70;99.90
7174;DHT22;3628;48.654;8.932;2024-01-15T05:01:37;-0.70;99.90
7174;DHT22;3628;48.654;8.932;2024-01-15T05:04:03;-0.70;99.90
7174;DHT22;3628;48.654;8.932;2024-01-15T05:06:29;-0.60;99.90
7174;DHT22;3628;48.654;8.932;2024-01-15T05:08:54;-0.60;99.90
7174;DHT22;3628;48.654;8.932;2024-01-15T05:11:20;-0.60;99.90
7174;DHT22;3628;48.654;8.932;2024-01-15T05:13:45;-0.60;99.90
7174;DHT22;3628;48.654;8.932;2024-01-15T05:16:11;-0.50;99.90
7174;DHT22;3628;48.654;8.932;2024-01-15T05:18:36;-0.50;99.90
7174;DHT22;3628;48.654;8.932;2024-01-15T05:21:05;-0.50;99.90
7174;DHT22;3628;48.654;8.932;2024-01-15T05:23:34;-0.50;99.90
7174;DHT22;3628;48.654;8.932;2024-01-15T05:25:59;-0.50;99.90
7174;DHT22;3628;48.654;8.932;2024-01-15T05:28:25;-0.50;99.90
7174;DHT22;3628;48.654;8.932;2024-01-15T05:30:50;-0.50;99.90
7174;DHT22;3628;48.654;8.932;2024-01-15T05:33:17;-0.50;99.90
7174;DHT22;3628;48.654;8.932;2024-01-15T05:35:42;-0.50;99.90
7174;DHT22;3628;48.654;8.932;2024-01-15T05:38:08;-0.50;99.90
7174;DHT22;3628;48.654;8.932;2024-01-15T05:40:34;-0.40;99.90
7174;DHT22;3628;48.654;8.932;2024-01-15T05:42:59;-0.50;99.90
7174;DHT22;3628;48.654;8.932;2024-01-15T05:45:26;-0.50;99.90
7174;DHT22;3628;48.654;8.932;2024-01-15T05:47:52;-0.50;99.90
7174;DHT22;3628;48.654;8.932;2024-01-15T05:50:17;-0.50;99.90
7174;DHT22;3628;48.654;8.932;2024-01-15T05:52:43;-0.60;99.90
7174;DHT22;3628;48.654;8.932;2024-01-15T05:55:09;-0.60;99.90
7174;DHT22;3628;48.654;8.932;2024-01-15T05:57:35;-0.60;99.90
7174;DHT22;3628;48.654;8.932;2024-01-15T06:00:00;-0.60;99.90
7174;DHT22;3628;48.654;8.932;2024-01-15T06:02:26;-0.60;99.90
7174;DHT22;3628;48.654;8.932;2024-01-15T06:04:52;-0.70;99.90
7174;DHT22;3628;48.654;8.932;2024-01-15T06:07:17;-0.60;99.90
7174;DHT22;3628;48.654;8.932;2024-01-15T06:09:43;-0.70;99.90
7174;DHT22;3628;48.654;8.932;2024-01-15T06:12:08;-0.70;99.90
7174;DHT22;3628;48.654;8.932;2024-01-15T06:14:34;-0.70;99.90
7174;DHT22;3628;48.654;8.932;2024-01-15T06:16:59;-0.70;99.90
7174;DHT22;3628;48.654;8.932;2024-01-15T06:19:25;-0.70;99.90
7174;DHT22;3628;48.654;8.932;2024-01-15T06:21:50;-0.70;99.90
7174;DHT22;3628;48.654;8.932;2024-01-15T06:24:16;-0.70;99.90
7174;DHT22;3628;48.654;8.932;2024-01-15T06:26:43;-0.70;99.90
7174;DHT22;3628;48.654;8.932;2024-01-15T06:29:09;-0.70;99.90
7174;DHT22;3628;48.654;8.932;2024-01-15T06:31:34;-0.70;99.90
7174;DHT22;3628;48.654;8.932;2024-01-15T06:34:00;-0.70;99.90
7174;DHT22;3628;48.654;8.932;2024-01-15T06:36:25;-0.70;99.90
7174;DHT22;3628;48.654;8.932;2024-01-15T06:38:51;-0.70;99.90
7174;DHT22;3628;48.654;8.932;2024-01-15T06:41:16;-0.70;99.90
7174;DHT22;3628;48.654;8.932;2024-01-15T06:43:42;-0.60;99.90
7174;DHT22;3628;48.654;8.932;2024-01-15T06:46:07;-0.60;99.90
7174;DHT22;3628;48.654;8.932;2024-01-15T06:48:33;-0.60;99.90
7174;DHT22;3628;48.654;8.932;2024-01-15T06:50:58;-0.60;99.90
7174;DHT22;3628;48.654;8.932;2024-01-15T06:53:24;-0.60;99.90
7174;DHT22;3628;48.654;8.932;2024-01-15T06:55:50;-0.60;99.90
7174;DHT22;3628;48.654;8.932;2024-01-15T06:58:16;-0.70;99.90
7174;DHT22;3628;48.654;8.932;2024-01-15T07:00:42;-0.70;99.90
7174;DHT22;3628;48.654;8.932;2024-01-15T07:03:07;-0.70;99.90
7174;DHT22;3628;48.654;8.932;2024-01-15T07:05:33;-0.60;99.90
7174;DHT22;3628;48.654;8.932;2024-01-15T07:07:58;-0.60;99.90
7174;DHT22;3628;48.654;8.932;2024-01-15T07:10:24;-0.60;99.90
7174;DHT22;3628;48.654;8.932;2024-01-15T07:12:50;-0.60;99.90
7174;DHT22;3628;48.654;8.932;2024-01-15T07:15:15;-0.60;99.90
7174;DHT22;3628;48.654;8.932;2024-01-15T07:17:41;-0.60;99.90
7174;DHT22;3628;48.654;8.932;2024-01-15T07:20:07;-0.70;99.90
7174;DHT22;3628;48.654;8.932;2024-01-15T07:22:35;-0.60;99.90
7174;DHT22;3628;48.654;8.932;2024-01-15T07:25:01;-0.60;99.90
7174;DHT22;3628;48.654;8.932;2024-01-15T07:27:26;-0.60;99.90
7174;DHT22;3628;48.654;8.932;2024-01-15T07:29:52;-0.60;99.90
7174;DHT22;3628;48.654;8.932;2024-01-15T07:32:17;-0.60;99.90
7174;DHT22;3628;48.654;8.932;2024-01-15T07:34:43;-0.60;99.90
7174;DHT22;3628;48.654;8.932;2024-01-15T07:37:09;-0.60;99.90
7174;DHT22;3628;48.654;8.932;2024-01-15T07:39:34;-0.60;99.90
7174;DHT22;3628;48.654;8.932;2024-01-15T07:42:00;-0.60;99.90
7174;DHT22;3628;48.654;8.932;2024-01-15T07:44:26;-0.50;99.90
7174;DHT22;3628;48.654;8.932;2024-01-15T07:46:51;-0.50;99.90
7174;DHT22;3628;48.654;8.932;2024-01-15T07:49:17;-0.50;99.90
7174;DHT22;3628;48.654;8.932;2024-01-15T07:51:43;-0.40;99.90
7174;DHT22;3628;48.654;8.932;2024-01-15T07:54:11;-0.40;99.90
7174;DHT22;3628;48.654;8.932;2024-01-15T07:57:00;-0.30;99.90
7174;DHT22;3628;48.654;8.932;2024-01-15T07:59:26;-0.30;99.90
7174;DHT22;3628;48.654;8.932;2024-01-15T08:01:52;-0.30;99.90
7174;DHT22;3628;48.654;8.932;2024-01-15T08:04:18;-0.20;99.90
7174;DHT22;3628;48.654;8.932;2024-01-15T08:06:44;-0.20;99.90
7174;DHT22;3628;48.654;8.932;2024-01-15T08:09:10;-0.20;99.90
7174;DHT22;3628;48.654;8.932;2024-01-15T08:11:38;-0.20;99.90
7174;DHT22;3628;48.654;8.932;2024-01-15T08:14:04;-0.10;99.90
7174;DHT22;3628;48.654;8.932;2024-01-15T08:16:29;-0.10;99.90
7174;DHT22;3628;48.654;8.932;2024-01-15T08:18:55;-0.10;99.90
7174;DHT22;3628;48.654;8.932;2024-01-15T08:21:21;0.00;99.90
7174;DHT22;3628;48.654;8.932;2024-01-15T08:23:47;0.00;99.90
7174;DHT22;3628;48.654;8.932;2024-01-15T08:26:13;0.10;99.90
7174;DHT22;3628;48.654;8.932;2024-01-15T08:28:38;0.10;99.90
7174;DHT22;3628;48.654;8.932;2024-01-15T08:31:04;0.10;99.90
7174;DHT22;3628;48.654;8.932;2024-01-15T08:33:30;0.20;99.90
7174;DHT22;3628;48.654;8.932;2024-01-15T08:35:55;0.20;99.90
7174;DHT22;3628;48.654;8.932;2024-01-15T08:38:21;0.30;99.90
7174;DHT22;3628;48.654;8.932;2024-01-15T08:40:47;0.30;99.90
7174;DHT22;3628;48.654;8.932;2024-01-15T08:43:13;0.30;99.90
7174;DHT22;3628;48.654;8.932;2024-01-15T08:45:38;0.30;99.90
7174;DHT22;3628;48.654;8.932;2024-01-15T08:48:04;0.40;99.90
7174;DHT22;3628;48.654;8.932;2024-01-15T08:50:30;0.40;99.90
7174;DHT22;3628;48.654;8.932;2024-01-15T08:52:57;0.40;99.90
7174;DHT22;3628;48.654;8.932;2024-01-15T08:55:22;0.50;99.90
7174;DHT22;3628;48.654;8.932;2024-01-15T08:57:48;0.50;99.90
7174;DHT22;3628;48.654;8.932;2024-01-15T09:00:14;0.50;99.90
7174;DHT22;3628;48.654;8.932;2024-01-15T09:02:41;0.50;99.90
7174;DHT22;3628;48.654;8.932;2024-01-15T09:05:07;0.50;99.90
7174;DHT22;3628;48.654;8.932;2024-01-15T09:07:33;0.60;99.90
7174;DHT22;3628;48.654;8.932;2024-01-15T09:09:59;0.60;99.90
7174;DHT22;3628;48.654;8.932;2024-01-15T09:12:25;0.60;99.90
7174;DHT22;3628;48.654;8.932;2024-01-15T09:14:51;0.50;99.90
7174;DHT22;3628;48.654;8.932;2024-01-15T09:17:17;0.60;99.90
7174;DHT22;3628;48.654;8.932;2024-01-15T09:19:43;0.70;99.90
7174;DHT22;3628;48.654;8.932;2024-01-15T09:22:09;0.70;99.90
7174;DHT22;3628;48.654;8.932;2024-01-15T09:24:35;0.70;99.90
7174;DHT22;3628;48.654;8.932;2024-01-15T09:27:01;0.70;99.90
7174;DHT22;3628;48.654;8.932;2024-01-15T09:29:27;0.70;99.90
7174;DHT22;3628;48.654;8.932;2024-01-15T09:31:53;0.70;99.90
7174;DHT22;3628;48.654;8.932;2024-01-15T09:34:18;0.80;99.90
7174;DHT22;3628;48.654;8.932;2024-01-15T09:36:44;0.80;99.90
7174;DHT22;3628;48.654;8.932;2024-01-15T09:39:10;0.90;99.90
7174;DHT22;3628;48.654;8.932;2024-01-15T09:41:37;0.90;99.90
7174;DHT22;3628;48.654;8.932;2024-01-15T09:44:03;1.00;99.90
7174;DHT22;3628;48.654;8.932;2024-01-15T09:46:31;1.00;99.90
7174;DHT22;3628;48.654;8.932;2024-01-15T09:48:57;1.00;99.90
7174;DHT22;3628;48.654;8.932;2024-01-15T09:51:23;1.10;99.90
7174;DHT22;3628;48.654;8.932;2024-01-15T09:53:50;1.10;99.90
7174;DHT22;3628;48.654;8.932;2024-01-15T09:56:16;1.10;99.90
7174;DHT22;3628;48.654;8.932;2024-01-15T09:58:42;1.10;99.90
7174;DHT22;3628;48.654;8.932;2024-01-15T10:01:08;1.10;99.90
7174;DHT22;3628;48.654;8.932;2024-01-15T10:03:35;1.10;99.90
7174;DHT22;3628;48.654;8.932;2024-01-15T10:06:01;1.10;99.90
7174;DHT22;3628;48.654;8.932;2024-01-15T10:08:28;1.10;99.90
7174;DHT22;3628;48.654;8.932;2024-01-15T10:10:53;1.10;99.90
7174;DHT22;3628;48.654;8.932;2024-01-15T10:13:19;1.10;99.90
7174;DHT22;3628;48.654;8.932;2024-01-15T10:15:46;1.10;99.90
7174;DHT22;3628;48.654;8.932;2024-01-15T10:18:12;1.10;99.90
7174;DHT22;3628;48.654;8.932;2024-01-15T10:20:39;1.10;99.90
7174;DHT22;3628;48.654;8.932;2024-01-15T10:23:05;1.10;99.90
7174;DHT22;3628;48.654;8.932;2024-01-15T10:25:30;1.10;99.90
7174;DHT22;3628;48.654;8.932;2024-01-15T10:28:00;1.10;99.90
7174;DHT22;3628;48.654;8.932;2024-01-15T10:30:26;1.10;99.90
7174;DHT22;3628;48.654;8.932;2024-01-15T10:33:02;1.10;99.90
7174;DHT22;3628;48.654;8.932;2024-01-15T10:35:38;1.10;99.90
7174;DHT22;3628;48.654;8.932;2024-01-15T10:38:05;1.20;99.90
7174;DHT22;3628;48.654;8.932;2024-01-15T10:40:31;1.20;99.90
7174;DHT22;3628;48.654;8.932;2024-01-15T10:42:57;1.20;99.90
7174;DHT22;3628;48.654;8.932;2024-01-15T10:45:23;1.20;99.90
7174;DHT22;3628;48.654;8.932;2024-01-15T10:47:49;1.20;99.90
7174;DHT22;3628;48.654;8.932;2024-01-15T10:50:14;1.20;99.90
7174;DHT22;3628;48.654;8.932;2024-01-15T10:52:41;1.20;99.90
7174;DHT22;3628;48.654;8.932;2024-01-15T10:55:08;1.30;99.90
7174;DHT22;3628;48.654;8.932;2024-01-15T10:57:39;1.30;99.90
7174;DHT22;3628;48.654;8.932;2024-01-15T11:00:06;1.30;99.90
7174;DHT22;3628;48.654;8.932;2024-01-15T11:02:33;1.30;99.90
7174;DHT22;3628;48.654;8.932;2024-01-15T11:04:59;1.20;99.90
7174;DHT22;3628;48.654;8.932;2024-01-15T11:07:26;1.20;99.90
7174;DHT22;3628;48.654;8.932;2024-01-15T11:09:52;1.20;99.90
7174;DHT22;3628;48.654;8.932;2024-01-15T11:12:18;1.20;99.90
7174;DHT22;3628;48.654;8.932;2024-01-15T11:14:48;1.20;99.90
7174;DHT22;3628;48.654;8.932;2024-01-15T11:17:15;1.20;99.90
7174;DHT22;3628;48.654;8.932;2024-01-15T11:24:54;1.30;99.90
7174;DHT22;3628;48.654;8.932;2024-01-15T11:27:43;1.30;99.90
7174;DHT22;3628;48.654;8.932;2024-01-15T11:30:10;1.30;99.90
7174;DHT22;3628;48.654;8.932;2024-01-15T11:32:37;1.40;99.90
7174;DHT22;3628;48.654;8.932;2024-01-15T11:35:05;1.40;99.90
7174;DHT22;3628;48.654;8.932;2024-01-15T11:40:21;1.30;99.90
7174;DHT22;3628;48.654;8.932;2024-01-15T11:42:48;1.40;99.90
7174;DHT22;3628;48.654;8.932;2024-01-15T11:45:21;1.40;99.90
7174;DHT22;3628;48.654;8.932;2024-01-15T11:50:30;1.40;99.90
7174;DHT22;3628;48.654;8.932;2024-01-15T11:53:03;1.30;99.90
7174;DHT22;3628;48.654;8.932;2024-01-15T11:55:39;1.20;99.90
7174;DHT22;3628;48.654;8.932;2024-01-15T11:58:09;1.20;99.90
7174;DHT22;3628;48.654;8.932;2024-01-15T12:00:46;1.20;99.90
7174;DHT22;3628;48.654;8.932;2024-01-15T12:03:12;1.10;99.90
7174;DHT22;3628;48.654;8.932;2024-01-15T12:05:39;1.10;99.90
7174;DHT22;3628;48.654;8.932;2024-01-15T12:08:04;1.10;99.90
7174;DHT22;3628;48.654;8.932;2024-01-15T12:10:37;1.00;99.90
7174;DHT22;3628;48.654;8.932;2024-01-15T12:13:14;0.90;99.90
7174;DHT22;3628;48.654;8.932;2024-01-15T12:15:41;0.90;99.90
7174;DHT22;3628;48.654;8.932;2024-01-15T12:18:09;0.90;99.90
7174;DHT22;3628;48.654;8.932;2024-01-15T12:20:34;0.90;99.90
7174;DHT22;3628;48.654;8.932;2024-01-15T12:23:01;0.90;99.90
7174;DHT22;3628;48.654;8.932;2024-01-15T12:25:29;0.90;99.90
7174;DHT22;3628;48.654;8.932;2024-01-15T12:27:55;0.90;99.90
7174;DHT22;3628;48.654;8.932;2024-01-15T12:30:21;1.00;99.90
7174;DHT22;3628;48.654;8.932;2024-01-15T12:32:47;1.00;99.90
7174;DHT22;3628;48.654;8.932;2024-01-15T12:35:13;0.90;99.90
7174;DHT22;3628;48.654;8.932;2024-01-15T12:37:40;1.00;99.90
7174;DHT22;3628;48.654;8.932;2024-01-15T12:40:08;1.00;99.90
7174;DHT22;3628;48.654;8.932;2024-01-15T12:42:41;0.90;99.90
7174;DHT22;3628;48.654;8.932;2024-01-15T12:45:08;0.90;99.90
7174;DHT22;3628;48.654;8.932;2024-01-15T12:47:34;1.00;99.90
7174;DHT22;3628;48.654;8.932;2024-01-15T12:50:00;1.00;99.90
7174;DHT22;3628;48.654;8.932;2024-01-15T12:52:29;1.10;99.90
7174;DHT22;3628;48.654;8.932;2024-01-15T12:54:55;1.00;99.90
7174;DHT22;3628;48.654;8.932;2024-01-15T12:57:21;1.00;99.90
7174;DHT22;3628;48.654;8.932;2024-01-15T12:59:47;1.00;99.90
7174;DHT22;3628;48.654;8.932;2024-01-15T13:02:13;1.10;99.90
7174;DHT22;3628;48.654;8.932;2024-01-15T13:04:39;1.10;99.90
7174;DHT22;3628;48.654;8.932;2024-01-15T13:07:08;1.10;99.90
7174;DHT22;3628;48.654;8.932;2024-01-15T13:09:35;1.00;99.90
7174;DHT22;3628;48.654;8.932;2024-01-15T13:12:01;1.00;99.90
7174;DHT22;3628;48.654;8.932;2024-01-15T13:14:28;1.00;99.90
7174;DHT22;3628;48.654;8.932;2024-01-15T13:16:53;1.00;99.90
7174;DHT22;3628;48.654;8.932;2024-01-15T13:19:20;0.90;99.90
7174;DHT22;3628;48.654;8.932;2024-01-15T13:21:47;1.00;99.90
7174;DHT22;3628;48.654;8.932;2024-01-15T13:24:12;1.00;99.90
7174;DHT22;3628;48.654;8.932;2024-01-15T13:26:39;0.90;99.90
7174;DHT22;3628;48.654;8.932;2024-01-15T13:29:05;0.90;99.90
7174;DHT22;3628;48.654;8.932;2024-01-15T13:31:31;0.90;99.90
7174;DHT22;3628;48.654;8.932;2024-01-15T13:33:57;0.90;99.90
7174;DHT22;3628;48.654;8.932;2024-01-15T13:36:23;0.90;99.90
7174;DHT22;3628;48.654;8.932;2024-01-15T13:38:50;0.90;99.90
7174;DHT22;3628;48.654;8.932;2024-01-15T13:41:16;0.90;99.90
7174;DHT22;3628;48.654;8.932;2024-01-15T13:43:49;0.90;99.90
7174;DHT22;3628;48.654;8.932;2024-01-15T13:46:14;0.90;99.90
7174;DHT22;3628;48.654;8.932;2024-01-15T13:48:40;0.90;99.90
7174;DHT22;3628;48.654;8.932;2024-01-15T13:51:06;1.00;99.90
7174;DHT22;3628;48.654;8.932;2024-01-15T13:53:31;1.00;99.90
7174;DHT22;3628;48.654;8.932;2024-01-15T13:55:57;1.10;99.90
7174;DHT22;3628;48.654;8.932;2024-01-15T13:58:22;1.10;99.90
7174;DHT22;3628;48.654;8.932;2024-01-15T14:00:48;1.20;99.90
7174;DHT22;3628;48.654;8.932;2024-01-15T14:03:15;1.20;99.90
7174;DHT22;3628;48.654;8.932;2024-01-15T14:05:40;1.20;99.90
7174;DHT22;3628;48.654;8.932;2024-01-15T14:08:06;1.30;99.90
7174;DHT22;3628;48.654;8.932;2024-01-15T14:10:33;1.20;99.90
7174;DHT22;3628;48.654;8.932;2024-01-15T14:12:58;1.10;99.90
7174;DHT22;3628;48.654;8.932;2024-01-15T14:15:24;1.10;99.90
7174;DHT22;3628;48.654;8.932;2024-01-15T14:17:49;1.20;99.90
7174;DHT22;3628;48.654;8.932;2024-01-15T14:20:15;1.20;99.90
7174;DHT22;3628;48.654;8.932;2024-01-15T14:22:41;1.20;99.90
7174;DHT22;3628;48.654;8.932;2024-01-15T14:25:07;1.20;99.90
7174;DHT22;3628;48.654;8.932;2024-01-15T14:27:33;1.20;99.90
7174;DHT22;3628;48.654;8.932;2024-01-15T14:29:58;1.20;99.90
7174;DHT22;3628;48.654;8.932;2024-01-15T14:32:24;1.10;99.90
7174;DHT22;3628;48.654;8.932;2024-01-15T14:34:49;1.10;99.90
7174;DHT22;3628;48.654;8.932;2024-01-15T14:37:15;1.10;99.90
7174;DHT22;3628;48.654;8.932;2024-01-15T14:39:41;1.10;99.90
7174;DHT22;3628;48.654;8.932;2024-01-15T14:42:06;1.10;99.90
7174;DHT22;3628;48.654;8.932;2024-01-15T14:44:32;1.10;99.90
7174;DHT22;3628;48.654;8.932;2024-01-15T14:47:00;0.90;99.90
7174;DHT22;3628;48.654;8.932;2024-01-15T14:49:26;0.80;99.90
7174;DHT22;3628;48.654;8.932;2024-01-15T14:51:51;0.80;99.90
7174;DHT22;3628;48.654;8.932;2024-01-15T14:54:17;0.70;99.90
7174;DHT22;3628;48.654;8.932;2024-01-15T14:56:42;0.70;99.90
7174;DHT22;3628;48.654;8.932;2024-01-15T14:59:08;0.60;99.90
7174;DHT22;3628;48.654;8.932;2024-01-15T15:01:34;0.60;99.90
7174;DHT22;3628;48.654;8.932;2024-01-15T15:03:59;0.60;99.90
7174;DHT22;3628;48.654;8.932;2024-01-15T15:06:25;0.70;99.90
7174;DHT22;3628;48.654;8.932;2024-01-15T15:08:53;0.70;99.90
7174;DHT22;3628;48.654;8.932;2024-01-15T15:11:20;0.70;99.90
7174;DHT22;3628;48.654;8.932;2024-01-15T15:13:48;0.70;99.90
7174;DHT22;3628;48.654;8.932;2024-01-15T15:16:15;0.70;99.90
7174;DHT22;3628;48.654;8.932;2024-01-15T15:18:41;0.70;99.90
7174;DHT22;3628;48.654;8.932;2024-01-15T15:21:08;0.70;99.90
7174;DHT22;3628;48.654;8.932;2024-01-15T15:23:34;0.60;99.90
7174;DHT22;3628;48.654;8.932;2024-01-15T15:25:59;0.50;99.90
7174;DHT22;3628;48.654;8.932;2024-01-15T15:28:25;0.40;99.90
7174;DHT22;3628;48.654;8.932;2024-01-15T15:30:50;0.40;99.90
7174;DHT22;3628;48.654;8.932;2024-01-15T15:33:16;0.30;99.90
7174;DHT22;3628;48.654;8.932;2024-01-15T15:35:43;0.30;99.90
7174;DHT22;3628;48.654;8.932;2024-01-15T15:38:09;0.30;99.90
7174;DHT22;3628;48.654;8.932;2024-01-15T15:40:34;0.20;99.90
7174;DHT22;3628;48.654;8.932;2024-01-15T15:43:00;0.20;99.90
7174;DHT22;3628;48.654;8.932;2024-01-15T15:45:25;0.20;99.90
7174;DHT22;3628;48.654;8.932;2024-01-15T15:47:52;0.20;99.90
7174;DHT22;3628;48.654;8.932;2024-01-15T15:50:17;0.20;99.90
7174;DHT22;3628;48.654;8.932;2024-01-15T15:52:43;0.10;99.90
7174;DHT22;3628;48.654;8.932;2024-01-15T15:55:08;0.10;99.90
7174;DHT22;3628;48.654;8.932;2024-01-15T15:57:34;0.10;99.90
7174;DHT22;3628;48.654;8.932;2024-01-15T15:59:59;0.10;99.90
7174;DHT22;3628;48.654;8.932;2024-01-15T16:02:25;0.10;99.90
7174;DHT22;3628;48.654;8.932;2024-01-15T16:04:50;0.10;99.90
7174;DHT22;3628;48.654;8.932;2024-01-15T16:07:16;0.00;99.90
7174;DHT22;3628;48.654;8.932;2024-01-15T16:09:42;0.00;99.90
7174;DHT22;3628;48.654;8.932;2024-01-15T16:12:07;0.00;99.90
7174;DHT22;3628;48.654;8.932;2024-01-15T16:14:37;0.00;99.90